Time;durP1;ratioP1;P1;durP2;ratioP2;P2;SDS_P1;SDS_P2;PMS_P1;PMS_P2;Temp;Humidity;BMP_temperature;BMP_pressure;BME280_temperature;BME280_humidity;BME280_pressure;Samples;Min_cycle;Max_cycle;Signal;HPM_P1;HPM_P2
2022/08/22 00:01:29;;;;;;;;;;;;;;;19.52;81.89;98773.72;4391996;32;32552;-88
2022/08/22 00:04:02;;;;;;;;;;;;;;;19.53;81.85;98775.41;4386973;32;34500;-87
2022/08/22 00:06:34;;;;;;;;;;;;;;;19.57;81.65;98776.91;4387518;32;34251;-88
2022/08/22 00:09:19;;;;;;;;;;;;;;;19.69;81.07;98775.28;4387720;32;33426;-87
2022/08/22 00:11:50;;;;;;;;;;;;;;;19.82;79.57;98777.97;4386959;32;32985;-88
2022/08/22 00:14:29;;;;;;;;;;;;;;;19.59;81.42;98772.34;4391030;32;34717;-88
2022/08/22 00:17:01;;;;;;;;;;;;;;;19.75;80.40;98774.03;4387026;32;33285;-92
2022/08/22 00:19:37;;;;;;;;;;;;;;;19.65;80.89;98775.56;4387038;32;34044;-88
2022/08/22 00:22:07;;;;;;;;;;;;;;;19.73;80.19;98775.94;4386784;32;33109;-91
2022/08/22 00:24:37;;;;;;;;;;;;;;;19.53;81.34;98778.03;4388405;32;33332;-88
2022/08/22 00:27:08;;;;;;;;;;;;;;;19.69;80.41;98777.06;4391645;32;33896;-87
2022/08/22 00:29:40;;;;;;;;;;;;;;;19.52;81.17;98775.50;4386825;32;34925;-87
2022/08/22 00:32:18;;;;;;;;;;;;;;;19.48;81.62;98782.75;4386684;32;33411;-92
2022/08/22 00:34:50;;;;;;;;;;;;;;;19.72;80.20;98776.88;4391450;32;34533;-87
2022/08/22 00:37:20;;;;;;;;;;;;;;;19.74;80.09;98773.19;4372620;32;32425;-90
2022/08/22 00:39:53;;;;;;;;;;;;;;;19.64;80.25;98776.47;4391859;32;34175;-89
2022/08/22 00:42:36;;;;;;;;;;;;;;;19.67;80.19;98776.28;4386820;32;34380;-88
2022/08/22 00:45:27;;;;;;;;;;;;;;;19.73;79.71;98779.41;4374899;32;33715;-92
2022/08/22 00:48:01;;;;;;;;;;;;;;;19.69;80.49;98774.44;4370810;32;34861;-92
2022/08/22 00:50:44;;;;;;;;;;;;;;;19.85;78.79;98780.38;4377953;32;33578;-88
2022/08/22 00:53:34;;;;;;;;;;;;;;;19.72;79.50;98784.78;4391211;32;32960;-91
2022/08/22 00:56:10;;;;;;;;;;;;;;;19.57;80.05;98784.78;4374742;32;33193;-88
2022/08/22 00:58:51;;;;;;;;;;;;;;;19.55;80.34;98784.03;4386532;32;35676;-90
2022/08/22 01:01:22;;;;;;;;;;;;;;;19.78;79.19;98789.63;4386357;32;33531;-88
2022/08/22 01:03:58;;;;;;;;;;;;;;;19.68;79.81;98783.28;4387225;32;34171;-88
2022/08/22 01:06:32;;;;;;;;;;;;;;;19.65;79.82;98773.78;4386643;32;33481;-89
2022/08/22 01:09:06;;;;;;;;;;;;;;;19.80;79.34;98785.09;4363224;32;34495;-92
2022/08/22 01:11:58;;;;;;;;;;;;;;;19.66;79.61;98777.22;4371624;32;33947;-90
2022/08/22 01:14:31;;;;;;;;;;;;;;;19.93;78.16;98783.34;4371711;32;33470;-87
2022/08/22 01:17:11;;;;;;;;;;;;;;;19.76;79.00;98781.81;4372182;32;34580;-91
2022/08/22 01:19:51;;;;;;;;;;;;;;;19.56;80.54;98775.19;4362356;32;34675;-92
2022/08/22 01:22:30;;;;;;;;;;;;;;;19.92;78.16;98772.94;4346632;32;34396;-90
2022/08/22 01:25:21;;;;;;;;;;;;;;;19.70;79.21;98770.88;4361068;32;34040;-89
2022/08/22 01:28:22;;;;;;;;;;;;;;;19.77;78.97;98778.25;4375996;32;34592;-90
2022/08/22 01:31:13;;;;;;;;;;;;;;;19.60;79.67;98776.69;4366858;32;33243;-92
2022/08/22 01:34:08;;;;;;;;;;;;;;;19.54;80.03;98779.72;4371348;32;33510;-90
2022/08/22 01:36:46;;;;;;;;;;;;;;;19.82;78.84;98777.97;4359768;32;32324;-91
2022/08/22 01:39:20;;;;;;;;;;;;;;;19.66;79.86;98770.19;4357576;32;32480;-93
2022/08/22 01:42:06;;;;;;;;;;;;;;;19.81;78.71;98773.63;4371710;32;33281;-93
2022/08/22 01:44:47;;;;;;;;;;;;;;;19.71;79.33;98777.81;4376411;32;33865;-91
2022/08/22 01:47:17;;;;;;;;;;;;;;;19.76;78.93;98770.44;4373249;32;32731;-93
2022/08/22 01:49:50;;;;;;;;;;;;;;;19.62;79.97;98779.25;4371517;32;33373;-91
2022/08/22 01:52:19;;;;;;;;;;;;;;;19.85;79.08;98774.28;4357922;32;33997;-91
2022/08/22 01:54:49;;;;;;;;;;;;;;;20.07;77.94;98787.69;4371532;32;34559;-92
2022/08/22 01:57:18;;;;;;;;;;;;;;;20.04;77.73;98772.94;4375924;32;32809;-89
2022/08/22 01:59:48;;;;;;;;;;;;;;;20.12;77.69;98777.69;4371462;32;34834;-91
2022/08/22 02:02:47;;;;;;;;;;;;;;;20.14;77.78;98781.06;4371415;32;34037;-91
2022/08/22 02:05:22;;;;;;;;;;;;;;;20.15;77.66;98774.87;4312020;33;33637;-90
2022/08/22 02:07:53;;;;;;;;;;;;;;;20.30;77.10;98774.78;4324153;33;32542;-90
2022/08/22 02:10:40;;;;;;;;;;;;;;;20.16;77.47;98773.91;4325271;33;32980;-92
2022/08/22 02:13:09;;;;;;;;;;;;;;;20.09;77.96;98777.91;4328779;33;34061;-91
2022/08/22 02:15:43;;;;;;;;;;;;;;;20.06;78.24;98762.31;4326781;33;33247;-90
2022/08/22 02:18:14;;;;;;;;;;;;;;;20.20;77.50;98764.03;4325215;33;32904;-90
2022/08/22 02:20:55;;;;;;;;;;;;;;;20.29;76.43;98762.56;4312350;33;33045;-92
2022/08/22 02:23:28;;;;;;;;;;;;;;;19.92;78.48;98771.12;4312652;33;32839;-90
2022/08/22 02:25:58;;;;;;;;;;;;;;;20.23;77.57;98763.81;4328740;33;34507;-94
2022/08/22 02:28:29;;;;;;;;;;;;;;;20.31;77.64;98763.28;4325118;33;33397;-91
2022/08/22 02:31:00;;;;;;;;;;;;;;;20.34;76.79;98761.28;4324195;33;34150;-93
2022/08/22 02:33:31;;;;;;;;;;;;;;;20.25;76.86;98757.50;4324124;33;33371;-92
2022/08/22 02:36:09;;;;;;;;;;;;;;;20.29;76.38;98755.50;4328398;33;33641;-93
2022/08/22 02:38:39;;;;;;;;;;;;;;;20.07;78.01;98758.72;4329343;33;33838;-94
2022/08/22 02:41:14;;;;;;;;;;;;;;;20.19;77.56;98760.53;4345165;32;33583;-96
2022/08/22 02:43:45;;;;;;;;;;;;;;;20.46;75.90;98755.19;4359283;32;34346;-91
2022/08/22 02:46:28;;;;;;;;;;;;;;;20.37;76.04;98754.97;4365267;32;32420;-93
2022/08/22 02:48:59;;;;;;;;;;;;;;;20.12;77.79;98751.37;4392323;32;33026;-91
2022/08/22 02:51:33;;;;;;;;;;;;;;;20.35;76.58;98754.25;4387615;32;34173;-90
2022/08/22 02:54:07;;;;;;;;;;;;;;;20.34;76.59;98758.66;4387825;32;33554;-92
2022/08/22 02:56:38;;;;;;;;;;;;;;;20.43;76.12;98754.56;4376440;32;33028;-89
2022/08/22 02:59:13;;;;;;;;;;;;;;;20.22;76.65;98751.59;4387596;32;33904;-91
2022/08/22 03:01:46;;;;;;;;;;;;;;;20.24;76.41;98750.53;4386858;32;35056;-89
2022/08/22 03:04:16;;;;;;;;;;;;;;;20.02;77.98;98747.66;4386849;32;34230;-91
2022/08/22 03:07:08;;;;;;;;;;;;;;;19.96;77.95;98742.84;4389339;32;33811;-93
2022/08/22 03:09:37;;;;;;;;;;;;;;;20.22;77.21;98751.59;4387575;32;33829;-92
2022/08/22 03:12:08;;;;;;;;;;;;;;;20.02;78.06;98751.13;4388005;32;34204;-89
2022/08/22 03:14:39;;;;;;;;;;;;;;;20.28;77.19;98752.97;4378453;32;32509;-92
2022/08/22 03:17:09;;;;;;;;;;;;;;;20.38;76.26;98752.22;4389611;32;34389;-93
2022/08/22 03:19:53;;;;;;;;;;;;;;;20.35;76.78;98763.00;4387145;32;32406;-94
2022/08/22 03:22:25;;;;;;;;;;;;;;;20.26;76.76;98760.97;4372120;32;32510;-91
2022/08/22 03:25:22;;;;;;;;;;;;;;;20.44;76.43;98767.63;4388098;32;34719;-88
2022/08/22 03:27:53;;;;;;;;;;;;;;;20.56;75.70;98767.75;4387161;32;33484;-89
2022/08/22 03:30:29;;;;;;;;;;;;;;;20.37;76.56;98769.00;4392002;32;33211;-88
2022/08/22 03:33:13;;;;;;;;;;;;;;;20.52;75.82;98771.53;4387416;32;33265;-88
2022/08/22 03:35:51;;;;;;;;;;;;;;;20.48;76.32;98770.06;4374858;32;33501;-88
2022/08/22 03:38:27;;;;;;;;;;;;;;;20.61;75.93;98774.41;4386942;32;34302;-90
2022/08/22 03:41:09;;;;;;;;;;;;;;;20.49;76.80;98777.00;4387272;32;32668;-88
2022/08/22 03:43:40;;;;;;;;;;;;;;;20.70;75.87;98777.34;4392027;32;33775;-91
2022/08/22 03:46:21;;;;;;;;;;;;;;;20.66;75.77;98777.56;4378383;32;34018;-90
2022/08/22 03:49:05;;;;;;;;;;;;;;;20.86;74.95;98780.59;4388107;32;34095;-89
2022/08/22 03:51:44;;;;;;;;;;;;;;;20.75;75.22;98781.34;4377840;32;33478;-89
2022/08/22 03:54:27;;;;;;;;;;;;;;;20.78;75.51;98786.41;4389541;32;34526;-89
2022/08/22 03:57:19;;;;;;;;;;;;;;;20.68;75.57;98785.34;4389310;32;34432;-88
2022/08/22 04:00:03;;;;;;;;;;;;;;;20.70;76.13;98786.09;4388219;32;34214;-89
2022/08/22 04:02:46;;;;;;;;;;;;;;;20.82;75.90;98781.75;4358906;32;33775;-89
2022/08/22 04:05:30;;;;;;;;;;;;;;;20.81;75.58;98785.34;4386632;32;33978;-92
2022/08/22 04:08:16;;;;;;;;;;;;;;;20.75;76.00;98783.13;4385912;32;33273;-88
2022/08/22 04:11:02;;;;;;;;;;;;;;;20.96;75.14;98793.97;4371338;32;34510;-92
2022/08/22 04:13:35;;;;;;;;;;;;;;;20.85;75.51;98792.06;4386996;32;33698;-89
2022/08/22 04:16:33;;;;;;;;;;;;;;;20.88;75.50;98795.38;4386970;32;34201;-88
2022/08/22 04:19:19;;;;;;;;;;;;;;;20.95;75.49;98792.28;4391405;32;34865;-88
2022/08/22 04:21:52;;;;;;;;;;;;;;;21.00;75.50;98795.47;4389857;32;33942;-89
2022/08/22 04:24:32;;;;;;;;;;;;;;;21.09;75.47;98797.44;4387409;32;33686;-91
2022/08/22 04:27:06;;;;;;;;;;;;;;;21.16;74.91;98789.94;4399030;32;33765;-89
2022/08/22 04:29:35;;;;;;;;;;;;;;;21.35;73.81;98794.75;4402246;32;33956;-90
2022/08/22 04:32:10;;;;;;;;;;;;;;;21.26;74.52;98793.59;4387878;32;33450;-94
2022/08/22 04:34:42;;;;;;;;;;;;;;;21.29;74.60;98791.59;4406986;32;33210;-88
2022/08/22 04:37:20;;;;;;;;;;;;;;;21.28;74.82;98794.31;4391621;32;34684;-89
2022/08/22 04:39:55;;;;;;;;;;;;;;;21.24;74.96;98799.00;4386301;32;33495;-89
2022/08/22 04:42:28;;;;;;;;;;;;;;;21.36;75.06;98801.69;4373075;32;33413;-91
2022/08/22 04:45:02;;;;;;;;;;;;;;;21.51;74.45;98798.81;4376765;32;33939;-89
2022/08/22 04:47:33;;;;;;;;;;;;;;;21.63;72.42;98804.19;4391778;32;34132;-90
2022/08/22 04:50:03;;;;;;;;;;;;;;;21.41;73.08;98804.91;4386875;32;33836;-91
2022/08/22 04:52:39;;;;;;;;;;;;;;;21.45;73.46;98807.19;4386955;32;33493;-88
2022/08/22 04:55:22;;;;;;;;;;;;;;;21.31;74.28;98804.66;4387839;32;33022;-91
2022/08/22 04:58:02;;;;;;;;;;;;;;;21.50;73.11;98809.47;4386991;32;35391;-90
2022/08/22 05:00:41;;;;;;;;;;;;;;;21.26;73.92;98805.00;4376844;32;34367;-93
2022/08/22 05:03:10;;;;;;;;;;;;;;;21.49;73.64;98810.44;4387219;32;33454;-90
2022/08/22 05:05:44;;;;;;;;;;;;;;;21.53;73.60;98811.91;4368851;32;34529;-90
2022/08/22 05:08:15;;;;;;;;;;;;;;;21.27;75.08;98813.75;4358020;32;35122;-89
2022/08/22 05:10:45;;;;;;;;;;;;;;;21.57;73.63;98810.72;4357951;32;35345;-89
2022/08/22 05:13:17;;;;;;;;;;;;;;;21.58;74.07;98815.06;4376146;32;33668;-90
2022/08/22 05:15:47;;;;;;;;;;;;;;;21.90;72.18;98809.22;4358233;32;33200;-89
2022/08/22 05:18:17;;;;;;;;;;;;;;;21.75;73.28;98819.13;4359250;32;35108;-93
2022/08/22 05:20:47;;;;;;;;;;;;;;;21.61;74.01;98820.13;4357637;32;34032;-92
2022/08/22 05:23:17;;;;;;;;;;;;;;;21.67;74.45;98821.47;4376184;32;33864;-93
2022/08/22 05:25:48;;;;;;;;;;;;;;;21.79;73.13;98812.63;4364350;32;34296;-89
2022/08/22 05:28:21;;;;;;;;;;;;;;;21.87;72.67;98820.03;4389009;32;33485;-90
2022/08/22 05:30:51;;;;;;;;;;;;;;;21.72;73.62;98821.97;4386807;32;33497;-91
2022/08/22 05:33:22;;;;;;;;;;;;;;;21.68;74.71;98826.63;4387178;32;34583;-93
2022/08/22 05:35:52;;;;;;;;;;;;;;;21.82;73.90;98822.13;4369674;32;35290;-92
2022/08/22 05:38:29;;;;;;;;;;;;;;;21.93;73.38;98827.47;4361087;32;34224;-92
2022/08/22 05:41:03;;;;;;;;;;;;;;;21.87;74.21;98827.94;4357238;32;34507;-90
2022/08/22 05:43:39;;;;;;;;;;;;;;;22.06;73.90;98835.31;4372007;32;34797;-90
2022/08/22 05:46:10;;;;;;;;;;;;;;;22.20;73.83;98836.94;4358871;32;32479;-93
2022/08/22 05:48:48;;;;;;;;;;;;;;;22.53;71.75;98830.94;4362031;32;34958;-89
2022/08/22 05:51:20;;;;;;;;;;;;;;;22.67;71.00;98829.91;4357412;32;34550;-91
2022/08/22 05:53:52;;;;;;;;;;;;;;;22.59;71.71;98833.09;4357550;32;33652;-91
2022/08/22 05:56:33;;;;;;;;;;;;;;;22.90;70.09;98844.81;4357226;32;32839;-89
2022/08/22 05:59:15;;;;;;;;;;;;;;;22.62;70.57;98840.81;4371634;32;34323;-89
2022/08/22 06:01:57;;;;;;;;;;;;;;;22.63;70.56;98841.66;4361882;32;34344;-91
2022/08/22 06:04:40;;;;;;;;;;;;;;;22.58;71.24;98845.50;4367456;32;35431;-90
2022/08/22 06:07:14;;;;;;;;;;;;;;;22.68;71.62;98850.91;4386367;32;33398;-92
2022/08/22 06:10:02;;;;;;;;;;;;;;;22.87;70.80;98853.00;4372200;32;33674;-90
2022/08/22 06:12:35;;;;;;;;;;;;;;;22.91;70.72;98849.16;4373829;32;35460;-92
2022/08/22 06:15:17;;;;;;;;;;;;;;;23.02;70.41;98860.72;4376107;32;37535;-90
2022/08/22 06:17:58;;;;;;;;;;;;;;;23.26;69.37;98852.69;4378040;32;35410;-93
2022/08/22 06:20:35;;;;;;;;;;;;;;;23.20;70.04;98852.19;4376446;32;35074;-90
2022/08/22 06:23:11;;;;;;;;;;;;;;;23.29;69.66;98850.63;4359806;32;34388;-93
2022/08/22 06:25:53;;;;;;;;;;;;;;;23.43;68.96;98860.94;4388300;32;34754;-90
2022/08/22 06:28:35;;;;;;;;;;;;;;;23.52;67.09;98855.91;4376574;32;33673;-91
2022/08/22 06:31:29;;;;;;;;;;;;;;;23.49;67.89;98854.34;4371700;32;34803;-90
2022/08/22 06:34:04;;;;;;;;;;;;;;;23.41;68.85;98868.19;4377002;32;35715;-90
2022/08/22 06:36:43;;;;;;;;;;;;;;;23.47;68.61;98860.72;4371149;32;33455;-91
2022/08/22 06:39:16;;;;;;;;;;;;;;;23.42;68.70;98863.75;4387980;32;32751;-91
2022/08/22 06:41:51;;;;;;;;;;;;;;;23.28;69.95;98870.12;4387527;32;34021;-89
2022/08/22 06:44:30;;;;;;;;;;;;;;;23.18;70.96;98867.34;4373195;32;34356;-90
2022/08/22 06:50:01;;;;;;;;;;;;;;;23.14;71.46;98878.28;4390834;32;33338;-91
2022/08/22 06:52:46;;;;;;;;;;;;;;;23.56;70.04;98879.38;4372610;32;33685;-91
2022/08/22 06:55:30;;;;;;;;;;;;;;;;;;;;;
2022/08/22 07:01:46;;;;;;;;;;;;;;;24.09;68.13;98868.06;4384892;27;34453;-91
2022/08/22 07:16:03;;;;;;;;;;;;;;;24.44;66.73;98862.47;4328868;33;33531;-90
2022/08/22 07:18:45;;;;;;;;;;;;;;;24.56;66.35;98870.41;4329481;33;33381;-91
2022/08/22 07:21:22;;;;;;;;;;;;;;;24.55;67.80;98877.53;4313242;33;33271;-93
2022/08/22 07:23:51;;;;;;;;;;;;;;;24.81;66.78;98872.66;4324102;33;34567;-88
2022/08/22 07:26:26;;;;;;;;;;;;;;;25.03;65.26;98876.12;4333296;33;33083;-88
2022/08/22 07:28:56;;;;;;;;;;;;;;;24.98;65.52;98879.16;4341317;33;33534;-88
2022/08/22 07:31:33;;;;;;;;;;;;;;;24.87;64.43;98881.91;4344873;33;33914;-87
2022/08/22 07:34:11;;;;;;;;;;;;;;;25.11;64.31;98877.16;4339537;33;35731;-88
2022/08/22 07:36:44;;;;;;;;;;;;;;;25.14;65.12;98873.37;4339481;33;33349;-88
2022/08/22 07:39:19;;;;;;;;;;;;;;;25.17;64.98;98878.47;4339390;33;34703;-88
2022/08/22 07:41:54;;;;;;;;;;;;;;;25.25;65.72;98880.44;4323589;33;33875;-87
2022/08/22 07:44:25;;;;;;;;;;;;;;;25.35;64.50;98881.34;4329166;33;34281;-88
2022/08/22 07:47:03;;;;;;;;;;;;;;;25.33;64.44;98886.78;4323443;33;32685;-88
2022/08/22 07:49:38;;;;;;;;;;;;;;;25.60;63.19;98885.31;4324583;33;33308;-87
2022/08/22 07:52:18;;;;;;;;;;;;;;;25.58;62.81;98892.59;4348349;32;35006;-88
2022/08/22 07:54:49;;;;;;;;;;;;;;;25.51;62.98;98894.94;4403598;32;33551;-87
2022/08/22 07:57:21;;;;;;;;;;;;;;;25.05;64.03;98890.94;4406341;32;32475;-88
2022/08/22 07:59:51;;;;;;;;;;;;;;;25.66;63.26;98889.25;4402688;32;34195;-88
2022/08/22 08:02:26;;;;;;;;;;;;;;;25.83;62.23;98885.97;4386790;32;33877;-88
2022/08/22 08:04:56;;;;;;;;;;;;;;;25.81;61.39;98887.91;4382824;32;34191;-88
2022/08/22 08:07:26;;;;;;;;;;;;;;;25.88;60.45;98889.06;4387636;32;33252;-88
2022/08/22 08:09:58;;;;;;;;;;;;;;;25.54;61.47;98894.69;4385280;32;33581;-88
2022/08/22 08:12:31;;;;;;;;;;;;;;;25.73;60.23;98883.28;4381856;32;33448;-88
2022/08/22 08:15:02;;;;;;;;;;;;;;;25.62;60.95;98896.66;4386316;32;34283;-87
2022/08/22 08:17:31;;;;;;;;;;;;;;;25.65;60.69;98891.06;4387655;32;33573;-87
2022/08/22 08:20:06;;;;;;;;;;;;;;;25.76;59.48;98890.13;4391588;32;34023;-88
2022/08/22 08:22:36;;;;;;;;;;;;;;;25.81;60.67;98901.19;4386246;32;34585;-88
2022/08/22 08:25:08;;;;;;;;;;;;;;;25.98;61.63;98890.91;4386650;32;34180;-87
2022/08/22 08:30:24;;;;;;;;;;;;;;;26.23;60.56;98887.69;4386765;32;33825;-88
2022/08/22 08:33:00;;;;;;;;;;;;;;;25.71;61.89;98893.19;4391862;32;34953;-88
2022/08/22 08:35:51;;;;;;;;;;;;;;;26.14;60.22;98894.69;4390162;32;33578;-87
2022/08/22 08:38:41;;;;;;;;;;;;;;;26.16;59.92;98889.22;4385692;32;34029;-87
2022/08/22 08:41:23;;;;;;;;;;;;;;;26.30;58.54;98895.94;4383800;32;33326;-88
2022/08/22 08:43:54;;;;;;;;;;;;;;;25.82;60.15;98889.56;4386451;32;34186;-89
2022/08/22 08:46:46;;;;;;;;;;;;;;;25.81;61.74;98884.41;4390044;32;33807;-88
2022/08/22 08:49:30;;;;;;;;;;;;;;;25.70;60.76;98882.69;4385484;32;32705;-88
2022/08/22 08:52:32;;;;;;;;;;;;;;;25.64;61.43;98892.06;4390749;32;34796;-88
2022/08/22 08:55:06;;;;;;;;;;;;;;;25.55;62.13;98896.34;4358470;32;34145;-88
2022/08/22 08:57:57;;;;;;;;;;;;;;;25.43;62.35;98896.59;4364118;32;33635;-87
2022/08/22 09:00:45;;;;;;;;;;;;;;;25.23;62.81;98887.72;4364491;32;32964;-87
2022/08/22 09:03:22;;;;;;;;;;;;;;;25.44;61.93;98900.91;4364793;32;33988;-87
2022/08/22 09:06:05;;;;;;;;;;;;;;;25.59;60.43;98896.06;4369218;32;33673;-87
2022/08/22 09:08:48;;;;;;;;;;;;;;;25.73;60.01;98898.34;4367601;32;34695;-88
2022/08/22 09:11:31;;;;;;;;;;;;;;;25.54;60.49;98900.00;4374022;32;33471;-87
2022/08/22 09:14:02;;;;;;;;;;;;;;;25.41;61.36;98902.03;4367470;32;33656;-87
2022/08/22 09:16:42;;;;;;;;;;;;;;;25.28;62.24;98896.13;4369403;32;33692;-88
2022/08/22 09:19:43;;;;;;;;;;;;;;;25.45;63.39;98899.97;4369032;32;34387;-87
2022/08/22 09:22:28;;;;;;;;;;;;;;;25.64;60.84;98902.69;4357288;32;33865;-88
2022/08/22 09:25:20;;;;;;;;;;;;;;;25.43;62.65;98897.44;4370442;32;34545;-87
2022/08/22 09:27:55;;;;;;;;;;;;;;;25.50;62.70;98903.87;4357465;32;34269;-87
2022/08/22 09:30:27;;;;;;;;;;;;;;;25.72;61.29;98900.19;4389370;32;34251;-87
2022/08/22 09:32:59;;;;;;;;;;;;;;;25.94;60.70;98899.12;4385869;32;32799;-88
2022/08/22 09:35:37;;;;;;;;;;;;;;;25.54;63.44;98900.00;4386401;32;34555;-88
2022/08/22 09:38:17;;;;;;;;;;;;;;;25.58;62.56;98897.06;4386087;32;34703;-88
2022/08/22 09:40:51;;;;;;;;;;;;;;;25.70;61.05;98898.63;4384763;32;34233;-88
2022/08/22 09:43:24;;;;;;;;;;;;;;;25.84;61.96;98892.94;4390436;32;33223;-88
2022/08/22 09:46:05;;;;;;;;;;;;;;;25.95;62.25;98900.81;4383814;32;33872;-88
2022/08/22 09:48:59;;;;;;;;;;;;;;;25.94;62.50;98899.12;4387774;32;34407;-88
2022/08/22 09:51:31;;;;;;;;;;;;;;;26.18;62.40;98901.41;4384596;32;34355;-87
2022/08/22 09:54:12;;;;;;;;;;;;;;;26.22;62.77;98896.66;4384113;32;34173;-88
2022/08/22 09:56:45;;;;;;;;;;;;;;;26.48;61.33;98902.25;4387665;32;33137;-89
2022/08/22 09:59:22;;;;;;;;;;;;;;;26.05;63.26;98906.16;4389961;32;33746;-89
2022/08/22 10:01:54;;;;;;;;;;;;;;;26.30;63.78;98898.63;4385360;32;34968;-88
2022/08/22 10:04:30;;;;;;;;;;;;;;;26.12;63.42;98901.09;4384818;32;34290;-87
2022/08/22 10:07:01;;;;;;;;;;;;;;;26.20;64.56;98909.25;4384590;32;34222;-89
2022/08/22 10:09:39;;;;;;;;;;;;;;;26.14;65.01;98900.03;4384062;32;33775;-87
2022/08/22 10:12:17;;;;;;;;;;;;;;;26.26;65.31;98902.53;4374353;32;34237;-87
2022/08/22 10:14:59;;;;;;;;;;;;;;;25.87;66.10;98903.31;4380177;32;33278;-87
2022/08/22 10:17:31;;;;;;;;;;;;;;;26.36;64.08;98906.88;4378023;32;34644;-87
2022/08/22 10:20:02;;;;;;;;;;;;;;;26.46;64.35;98904.22;4380622;32;34448;-88
2022/08/22 10:22:35;;;;;;;;;;;;;;;26.53;64.62;98905.38;4384111;32;34130;-89
2022/08/22 10:25:08;;;;;;;;;;;;;;;26.72;64.16;98904.47;4388516;32;32693;-87
2022/08/22 10:27:42;;;;;;;;;;;;;;;26.51;64.91;98903.81;4385758;32;34421;-86
2022/08/22 10:30:16;;;;;;;;;;;;;;;26.67;64.06;98901.41;4385429;32;34754;-86
2022/08/22 10:32:46;;;;;;;;;;;;;;;26.98;63.03;98909.19;4383723;32;34944;-86
2022/08/22 10:35:21;;;;;;;;;;;;;;;26.87;63.49;98907.56;4390060;32;34027;-86
2022/08/22 10:37:54;;;;;;;;;;;;;;;26.77;61.77;98896.06;4390539;32;33940;-88
2022/08/22 10:40:28;;;;;;;;;;;;;;;27.16;61.98;98907.47;4385417;32;34672;-86
2022/08/22 10:42:59;;;;;;;;;;;;;;;27.37;62.08;98904.59;4385851;32;35644;-87
2022/08/22 10:45:38;;;;;;;;;;;;;;;27.19;60.61;98907.22;4385949;32;33049;-87
2022/08/22 10:48:30;;;;;;;;;;;;;;;27.28;59.22;98909.97;4384955;32;34867;-86
2022/08/22 10:51:02;;;;;;;;;;;;;;;27.43;60.27;98901.38;4390325;32;34891;-86
2022/08/22 10:53:49;;;;;;;;;;;;;;;27.39;59.67;98912.47;4384802;32;34746;-87
2022/08/22 10:56:26;;;;;;;;;;;;;;;27.54;57.22;98899.50;4388642;32;33803;-86
2022/08/22 10:58:59;;;;;;;;;;;;;;;27.80;57.81;98902.31;4386603;32;34189;-87
2022/08/22 11:01:40;;;;;;;;;;;;;;;27.93;59.30;98905.47;4386991;32;33681;-86
2022/08/22 11:04:11;;;;;;;;;;;;;;;27.50;57.60;98898.97;4391014;32;34218;-87
2022/08/22 11:06:48;;;;;;;;;;;;;;;27.71;55.64;98896.03;4392541;32;33394;-86
2022/08/22 11:09:20;;;;;;;;;;;;;;;27.98;54.62;98892.53;4390485;32;34831;-86
2022/08/22 11:11:52;;;;;;;;;;;;;;;28.16;55.27;98897.03;4371881;32;33294;-87
2022/08/22 11:14:34;;;;;;;;;;;;;;;27.96;54.61;98889.19;4372502;32;34363;-86
2022/08/22 11:17:08;;;;;;;;;;;;;;;28.15;55.86;98896.22;4377854;32;33561;-86
2022/08/22 11:20:01;;;;;;;;;;;;;;;27.94;54.62;98888.50;4377237;32;34854;-87
2022/08/22 11:22:40;;;;;;;;;;;;;;;27.97;54.23;98890.03;4379546;32;35014;-86
2022/08/22 11:25:13;;;;;;;;;;;;;;;27.97;55.53;98890.03;4386556;32;34295;-86
2022/08/22 11:28:11;;;;;;;;;;;;;;;28.17;56.97;98896.87;4388533;32;32916;-86
2022/08/22 11:30:42;;;;;;;;;;;;;;;28.31;56.52;98895.50;4387165;32;34041;-86
2022/08/22 11:33:20;;;;;;;;;;;;;;;28.08;57.50;98890.66;4387359;32;34186;-87
2022/08/22 11:36:11;;;;;;;;;;;;;;;28.18;57.44;98887.06;4392058;32;33600;-86
2022/08/22 11:38:44;;;;;;;;;;;;;;;28.23;56.75;98892.78;4387399;32;33026;-86
2022/08/22 11:41:15;;;;;;;;;;;;;;;28.00;55.91;98887.87;4386876;32;34060;-86
2022/08/22 11:43:54;;;;;;;;;;;;;;;28.25;55.25;98890.81;4386559;32;34646;-87
2022/08/22 11:46:25;;;;;;;;;;;;;;;28.32;55.98;98889.19;4386737;32;34397;-88
2022/08/22 11:49:23;;;;;;;;;;;;;;;28.17;54.76;98883.53;4391945;32;32266;-87
2022/08/22 11:52:04;;;;;;;;;;;;;;;28.13;55.34;98886.69;4322043;33;34356;-86
2022/08/22 11:54:56;;;;;;;;;;;;;;;28.36;55.81;98887.06;4309871;33;34030;-86
2022/08/22 11:57:27;;;;;;;;;;;;;;;27.89;56.17;98887.28;4326458;33;33431;-87
2022/08/22 11:59:59;;;;;;;;;;;;;;;28.28;55.80;98893.16;4325061;33;33616;-86
2022/08/22 12:02:30;;;;;;;;;;;;;;;28.55;54.53;98883.41;4324699;33;33868;-87
2022/08/22 12:05:11;;;;;;;;;;;;;;;28.52;55.12;98881.88;4329244;33;33740;-87
2022/08/22 12:07:53;;;;;;;;;;;;;;;28.84;54.02;98877.78;4329928;33;35065;-87
2022/08/22 12:10:22;;;;;;;;;;;;;;;28.78;53.65;98879.25;4323724;33;32882;-86
2022/08/22 12:12:54;;;;;;;;;;;;;;;28.85;53.78;98880.31;4324404;33;33692;-86
2022/08/22 12:15:25;;;;;;;;;;;;;;;28.58;53.57;98875.09;4326784;33;34660;-86
2022/08/22 12:18:07;;;;;;;;;;;;;;;28.67;54.03;98876.81;4328817;33;33490;-85
2022/08/22 12:20:50;;;;;;;;;;;;;;;28.96;52.72;98875.69;4328735;33;31597;-86
2022/08/22 12:23:25;;;;;;;;;;;;;;;29.05;51.92;98878.25;4323834;33;33518;-86
2022/08/22 12:26:25;;;;;;;;;;;;;;;28.92;51.98;98875.16;4360284;32;33676;-86
2022/08/22 12:28:58;;;;;;;;;;;;;;;29.09;53.27;98876.09;4386355;32;34005;-87
2022/08/22 12:31:29;;;;;;;;;;;;;;;29.14;53.63;98871.16;4387372;32;33305;-86
2022/08/22 12:34:03;;;;;;;;;;;;;;;28.72;53.85;98880.69;4392109;32;33467;-87
2022/08/22 12:36:40;;;;;;;;;;;;;;;28.98;51.77;98876.38;4373022;32;32585;-85
2022/08/22 12:39:29;;;;;;;;;;;;;;;29.02;52.01;98872.37;4386889;32;33970;-86
2022/08/22 12:42:07;;;;;;;;;;;;;;;29.15;52.30;98872.81;4382300;32;33128;-86
2022/08/22 12:44:42;;;;;;;;;;;;;;;29.20;50.91;98872.34;4387428;32;33725;-86
2022/08/22 12:47:20;;;;;;;;;;;;;;;29.14;52.21;98861.31;4390363;32;33726;-87
2022/08/22 12:50:00;;;;;;;;;;;;;;;29.01;50.90;98868.03;4391905;32;34351;-86
2022/08/22 12:52:34;;;;;;;;;;;;;;;29.17;51.96;98876.16;4386414;32;33414;-86
2022/08/22 12:55:19;;;;;;;;;;;;;;;28.86;52.73;98865.94;4386063;32;35025;-86
2022/08/22 12:57:58;;;;;;;;;;;;;;;28.60;51.85;98881.94;4388993;32;33770;-86
2022/08/22 13:00:30;;;;;;;;;;;;;;;28.17;51.87;98880.03;4386044;32;34427;-86
2022/08/22 13:03:10;;;;;;;;;;;;;;;28.06;53.06;98878.44;4389230;32;32693;-85
2022/08/22 13:05:39;;;;;;;;;;;;;;;28.02;52.88;98877.06;4391130;32;33374;-85
2022/08/22 13:08:08;;;;;;;;;;;;;;;28.04;52.97;98877.75;4387290;32;34771;-85
2022/08/22 13:10:40;;;;;;;;;;;;;;;28.03;53.97;98879.59;4385640;32;33854;-86
2022/08/22 13:13:15;;;;;;;;;;;;;;;27.99;51.24;98875.53;4385304;32;33109;-85
2022/08/22 13:15:56;;;;;;;;;;;;;;;27.66;50.80;98882.31;4390779;32;34118;-85
2022/08/22 13:18:34;;;;;;;;;;;;;;;27.71;52.40;98885.38;4390941;32;34105;-87
2022/08/22 13:21:05;;;;;;;;;;;;;;;27.63;52.82;98887.94;4371818;32;33055;-86
2022/08/22 13:23:38;;;;;;;;;;;;;;;27.58;54.29;98890.22;4386039;32;33851;-84
2022/08/22 13:26:14;;;;;;;;;;;;;;;27.57;53.33;98883.19;4390321;32;35231;-85
2022/08/22 13:29:03;;;;;;;;;;;;;;;27.51;54.64;98886.47;4386143;32;33759;-86
2022/08/22 13:31:57;;;;;;;;;;;;;;;27.59;54.84;98881.22;4390994;32;33955;-85
2022/08/22 13:34:28;;;;;;;;;;;;;;;27.87;54.10;98885.59;4386048;32;33248;-85
2022/08/22 13:36:59;;;;;;;;;;;;;;;28.03;54.54;98887.59;4391042;32;33535;-85
2022/08/22 13:39:28;;;;;;;;;;;;;;;28.23;53.38;98890.94;4386050;32;33882;-86
2022/08/22 13:41:58;;;;;;;;;;;;;;;28.19;53.25;98896.72;4386008;32;34801;-87
2022/08/22 13:44:29;;;;;;;;;;;;;;;28.26;53.58;98903.13;4391234;32;33277;-85
2022/08/22 13:47:02;;;;;;;;;;;;;;;28.49;51.35;98891.03;4388180;32;34389;-86
2022/08/22 13:49:42;;;;;;;;;;;;;;;28.48;49.82;98892.00;4386160;32;35034;-85
2022/08/22 13:52:13;;;;;;;;;;;;;;;28.82;51.11;98901.13;4385912;32;33800;-85
2022/08/22 13:54:58;;;;;;;;;;;;;;;28.90;49.33;98899.34;4386716;32;33551;-84
2022/08/22 13:57:33;;;;;;;;;;;;;;;28.91;49.31;98909.03;4391298;32;33316;-85
2022/08/22 14:00:08;;;;;;;;;;;;;;;28.78;50.41;98907.75;4385975;32;34052;-86